createdAt,value
2023-01-13T00:02:04.630Z,61.42
2023-01-13T00:07:05.962Z,61.28
2023-01-13T00:12:07.169Z,61.67
2023-01-13T00:17:08.633Z,61.60
2023-01-13T00:22:09.830Z,61.16
2023-01-13T00:27:11.098Z,61.19
2023-01-13T00:32:12.855Z,62.17
2023-01-13T00:37:14.141Z,62.37
2023-01-13T00:42:33.769Z,62.53
2023-01-13T00:47:35.302Z,62.75
2023-01-13T00:52:36.503Z,62.92
2023-01-13T00:57:39.425Z,63.01
2023-01-13T01:02:40.737Z,63.84
2023-01-13T01:07:42.076Z,64.96
2023-01-13T01:12:43.380Z,64.78
2023-01-13T01:17:44.722Z,64.49
2023-01-13T01:22:45.956Z,64.04
2023-01-13T01:27:47.165Z,63.79
2023-01-13T01:32:48.382Z,63.85
2023-01-13T01:37:49.969Z,63.78
2023-01-13T01:43:10.135Z,63.94
2023-01-13T01:48:11.923Z,64.25
2023-01-13T01:53:18.007Z,64.99
2023-01-13T01:58:21.974Z,66.18
2023-01-13T02:03:23.448Z,65.15
2023-01-13T02:08:24.691Z,65.23
2023-01-13T02:13:25.959Z,65.18
2023-01-13T02:19:05.049Z,65.43
2023-01-13T02:24:34.630Z,65.35
2023-01-13T02:30:32.767Z,65.86
2023-01-13T02:35:44.714Z,66.41
2023-01-13T02:40:56.088Z,66.78
2023-01-13T02:46:07.908Z,66.88
2023-01-13T02:51:14.260Z,67.48
2023-01-13T02:56:17.524Z,67.20
2023-01-13T03:01:19.018Z,67.36
2023-01-13T03:06:40.607Z,67.52
2023-01-13T03:12:22.358Z,67.70
2023-01-13T03:17:39.555Z,67.77
2023-01-13T03:22:49.733Z,68.30
2023-01-13T03:27:58.181Z,68.64
2023-01-13T03:33:05.340Z,67.96
2023-01-13T03:38:51.849Z,68.02
2023-01-13T03:44:15.555Z,68.08
2023-01-13T03:49:21.430Z,68.15
2023-01-13T03:54:27.274Z,68.25
2023-01-13T03:59:40.088Z,68.12
2023-01-13T04:04:49.078Z,68.32
2023-01-13T04:09:53.896Z,68.24
2023-01-13T04:14:55.748Z,68.39
2023-01-13T04:19:56.883Z,68.27
2023-01-13T04:24:58.156Z,68.27
2023-01-13T04:29:59.504Z,67.87
2023-01-13T04:35:00.649Z,67.87
2023-01-13T04:40:02.016Z,67.27
2023-01-13T04:45:03.893Z,67.77
2023-01-13T04:50:05.462Z,67.79
2023-01-13T04:55:07.850Z,68.00
2023-01-13T05:00:11.655Z,68.05
2023-01-13T05:05:12.831Z,67.90
2023-01-13T05:10:14.427Z,67.22
2023-01-13T05:15:34.500Z,67.74
2023-01-13T05:20:35.771Z,67.68
2023-01-13T05:25:40.052Z,68.03
2023-01-13T05:30:43.504Z,68.22
2023-01-13T05:35:46.608Z,68.22
2023-01-13T05:41:06.822Z,68.26
2023-01-13T05:46:09.454Z,67.84
2023-01-13T05:51:12.329Z,67.77
2023-01-13T05:56:13.590Z,67.39
2023-01-13T06:01:15.353Z,67.25
2023-01-13T06:06:16.579Z,66.99
2023-01-13T06:11:17.818Z,67.73
2023-01-13T06:16:19.160Z,67.76
2023-01-13T06:21:20.650Z,67.65
2023-01-13T06:26:24.469Z,67.58
2023-01-13T06:31:27.855Z,67.55
2023-01-13T06:36:37.263Z,67.62
2023-01-13T06:42:02.521Z,67.18
2023-01-13T06:47:04.076Z,66.99
2023-01-13T06:52:05.340Z,66.96
2023-01-13T06:57:06.587Z,67.21
2023-01-13T07:02:08.000Z,67.12
2023-01-13T07:07:09.457Z,66.88
2023-01-13T07:12:13.871Z,66.73
2023-01-13T07:17:15.213Z,66.32
2023-01-13T07:22:16.588Z,66.06
2023-01-13T07:27:17.836Z,65.96
2023-01-13T07:32:19.066Z,65.99
2023-01-13T07:37:20.329Z,66.20
2023-01-13T07:42:40.642Z,66.49
2023-01-13T07:47:41.877Z,66.89
2023-01-13T07:52:43.129Z,66.65
2023-01-13T07:57:44.693Z,66.58
2023-01-13T08:02:46.118Z,66.55
2023-01-13T08:07:47.444Z,66.48
2023-01-13T08:13:06.942Z,66.36
2023-01-13T08:18:08.276Z,66.26
2023-01-13T08:23:12.012Z,65.90
2023-01-13T08:28:15.376Z,66.20
2023-01-13T08:33:16.789Z,65.99
2023-01-13T08:38:18.396Z,65.67
2023-01-13T08:43:19.713Z,65.60
2023-01-13T08:48:20.859Z,66.02
2023-01-13T08:53:22.049Z,65.97
2023-01-13T08:58:23.578Z,66.39
2023-01-13T09:03:24.888Z,66.54
2023-01-13T09:08:26.380Z,66.63
2023-01-13T09:13:27.612Z,66.61
2023-01-13T09:18:28.837Z,66.48
2023-01-13T09:23:30.026Z,66.35
2023-01-13T09:28:31.834Z,66.40
2023-01-13T09:33:51.675Z,66.11
2023-01-13T09:38:52.953Z,65.91
2023-01-13T09:43:58.614Z,65.98
2023-01-13T09:49:02.836Z,66.06
2023-01-13T09:54:25.103Z,66.00
2023-01-13T09:59:31.899Z,65.91
2023-01-13T10:04:33.153Z,65.85
2023-01-13T10:09:53.943Z,65.74
2023-01-13T10:14:55.492Z,65.69
2023-01-13T10:20:15.341Z,66.36
2023-01-13T10:25:35.443Z,66.89
2023-01-13T10:30:40.514Z,67.04
2023-01-13T10:36:01.657Z,67.34
2023-01-13T10:41:17.371Z,67.15
2023-01-13T10:46:20.684Z,66.75
2023-01-13T10:51:24.166Z,66.72
2023-01-13T10:56:33.916Z,66.50
2023-01-13T11:02:23.846Z,66.15
2023-01-13T11:07:34.729Z,66.35
2023-01-13T11:12:46.387Z,65.92
2023-01-13T11:18:01.353Z,65.95
2023-01-13T11:23:25.202Z,66.07
2023-01-13T11:28:44.109Z,65.92
2023-01-13T11:34:24.277Z,65.95
2023-01-13T11:39:47.316Z,66.04
2023-01-13T11:45:16.809Z,66.10
2023-01-13T11:50:45.272Z,66.19
2023-01-13T11:56:02.629Z,65.99
2023-01-13T12:01:42.836Z,65.63
2023-01-13T12:06:49.183Z,65.87
2023-01-13T12:12:33.061Z,65.94
2023-01-13T12:17:49.812Z,65.22
2023-01-13T12:22:56.852Z,65.53
2023-01-13T12:28:02.631Z,66.00
2023-01-13T12:33:29.443Z,66.18
2023-01-13T12:38:37.369Z,65.95
2023-01-13T12:44:04.572Z,65.71
2023-01-13T12:49:17.813Z,65.53
2023-01-13T12:54:39.015Z,65.48
2023-01-13T12:59:41.816Z,65.59
2023-01-13T13:04:51.737Z,65.74
2023-01-13T13:10:18.822Z,66.29
2023-01-13T13:15:24.631Z,66.32
2023-01-13T13:21:05.431Z,66.06
2023-01-13T13:26:26.713Z,65.39
2023-01-13T13:32:14.292Z,65.85
2023-01-13T13:37:55.191Z,65.92
2023-01-13T13:43:16.983Z,65.86
2023-01-13T13:48:39.585Z,66.07
2023-01-13T13:53:42.624Z,66.06
2023-01-13T13:58:48.170Z,66.11
2023-01-13T14:04:11.736Z,66.65
2023-01-13T14:09:17.273Z,66.66
2023-01-13T14:14:21.051Z,66.81
2023-01-13T14:19:45.623Z,66.73
2023-01-13T14:24:55.196Z,67.55
2023-01-13T14:30:00.739Z,67.82
2023-01-13T14:35:07.858Z,68.00
2023-01-13T14:40:33.366Z,67.74
2023-01-13T14:45:36.170Z,67.89
2023-01-13T14:50:38.946Z,68.01
2023-01-13T14:55:42.104Z,67.70
2023-01-13T15:00:44.842Z,67.60
2023-01-13T15:05:52.333Z,67.72
2023-01-13T15:11:00.966Z,67.62
2023-01-13T15:16:26.203Z,67.58
2023-01-13T15:21:29.291Z,67.54
2023-01-13T15:26:33.304Z,67.57
2023-01-13T15:31:35.854Z,67.62
2023-01-13T15:36:39.726Z,67.93
2023-01-13T15:42:00.913Z,67.52
2023-01-13T15:47:07.477Z,67.89
2023-01-13T15:52:21.760Z,67.26
2023-01-13T15:57:30.609Z,67.24
2023-01-13T16:02:33.674Z,67.51
2023-01-13T16:07:36.949Z,67.16
2023-01-13T16:12:39.896Z,66.78
2023-01-13T16:17:45.407Z,66.53
2023-01-13T16:22:48.481Z,66.92
2023-01-13T16:27:52.368Z,67.03
2023-01-13T16:32:55.773Z,67.04
2023-01-13T16:37:59.699Z,66.98
2023-01-13T16:43:04.048Z,67.20
2023-01-13T16:48:07.089Z,67.26
2023-01-13T16:53:11.498Z,67.14
2023-01-13T16:58:19.972Z,66.86
2023-01-13T17:03:22.702Z,66.74
2023-01-13T17:08:25.399Z,66.55
2023-01-13T17:13:28.312Z,66.20
2023-01-13T17:18:31.010Z,65.85
2023-01-13T17:23:34.449Z,65.72
2023-01-13T17:28:37.567Z,65.07
2023-01-13T17:33:40.145Z,64.96
2023-01-13T17:38:42.724Z,64.30
2023-01-13T17:43:45.409Z,64.96
2023-01-13T17:48:55.309Z,64.85
2023-01-13T17:53:57.833Z,64.55
2023-01-13T17:59:00.414Z,64.49
2023-01-13T18:04:03.255Z,64.23
2023-01-13T18:09:06.026Z,63.95
2023-01-13T18:14:09.849Z,64.11
2023-01-13T18:19:31.191Z,63.96
2023-01-13T18:24:52.531Z,63.93
2023-01-13T18:29:57.391Z,64.27
2023-01-13T18:35:06.759Z,64.53
2023-01-13T18:40:12.460Z,64.89
2023-01-13T18:45:15.319Z,65.10
2023-01-13T18:50:18.767Z,64.86
2023-01-13T18:55:22.400Z,64.48
2023-01-13T19:00:27.185Z,64.32
2023-01-13T19:05:29.756Z,64.09
2023-01-13T19:10:32.790Z,63.65
2023-01-13T19:15:37.165Z,63.42
2023-01-13T19:20:39.925Z,63.31
2023-01-13T19:25:42.656Z,63.82
2023-01-13T19:30:45.230Z,63.71
2023-01-13T19:35:50.031Z,63.46
2023-01-13T19:41:31.604Z,63.09
2023-01-13T19:46:34.887Z,63.37
2023-01-13T19:51:37.533Z,63.29
2023-01-13T19:56:40.226Z,63.05
2023-01-13T20:01:43.044Z,62.59
2023-01-13T20:06:46.454Z,62.29
2023-01-13T20:11:52.682Z,62.31
2023-01-13T20:16:55.968Z,62.59
2023-01-13T20:21:59.183Z,62.89
2023-01-13T20:27:03.041Z,62.93
2023-01-13T20:32:05.737Z,63.16
2023-01-13T20:37:08.328Z,63.28
2023-01-13T20:42:29.579Z,63.35
2023-01-13T20:47:32.340Z,63.52
2023-01-13T20:52:35.343Z,63.37
2023-01-13T20:57:38.045Z,63.40
2023-01-13T21:02:41.739Z,63.41
2023-01-13T21:07:44.801Z,63.52
2023-01-13T21:13:10.479Z,63.29
2023-01-13T21:18:31.656Z,63.92
2023-01-13T21:23:34.125Z,64.45
2023-01-13T21:28:37.119Z,64.16
2023-01-13T21:33:39.913Z,63.35
2023-01-13T21:38:42.717Z,63.66
2023-01-13T21:44:04.145Z,63.20
2023-01-13T21:49:07.309Z,63.44
2023-01-13T21:54:09.885Z,63.50
2023-01-13T21:59:12.630Z,64.19
2023-01-13T22:04:15.254Z,63.58
2023-01-13T22:09:18.193Z,63.47
2023-01-13T22:14:21.319Z,63.29
2023-01-13T22:19:24.859Z,63.09
2023-01-13T22:24:30.029Z,62.89
2023-01-13T22:29:32.629Z,62.85
2023-01-13T22:34:36.290Z,62.96
2023-01-13T22:39:39.361Z,62.98
2023-01-13T22:44:42.977Z,63.04
2023-01-13T22:49:47.723Z,63.12
2023-01-13T22:54:50.368Z,62.91
2023-01-13T22:59:52.972Z,62.63
2023-01-13T23:04:55.606Z,62.80
2023-01-13T23:10:00.013Z,62.99
2023-01-13T23:15:03.486Z,63.00
2023-01-13T23:20:06.315Z,63.09
2023-01-13T23:25:09.837Z,63.22
2023-01-13T23:30:12.567Z,63.02
2023-01-13T23:35:15.114Z,63.52
2023-01-13T23:40:17.798Z,64.01
2023-01-13T23:45:20.287Z,64.04
2023-01-13T23:50:22.822Z,63.72
2023-01-13T23:55:25.877Z,63.60
